sensor_id;sensor_type;location;lat;lon;timestamp;temperature;humidity
48454;DHT22;34261;55.678;12.464;2024-01-11T00:00:34;1.40;99.90
48454;DHT22;34261;55.678;12.464;2024-01-11T00:03:00;1.30;99.90
48454;DHT22;34261;55.678;12.464;2024-01-11T00:05:26;1.40;99.90
48454;DHT22;34261;55.678;12.464;2024-01-11T00:07:52;1.40;99.90
48454;DHT22;34261;55.678;12.464;2024-01-11T00:10:18;1.40;99.90
48454;DHT22;34261;55.678;12.464;2024-01-11T00:12:43;1.50;99.90
48454;DHT22;34261;55.678;12.464;2024-01-11T00:15:09;1.50;99.90
48454;DHT22;34261;55.678;12.464;2024-01-11T00:17:36;1.50;99.90
48454;DHT22;34261;55.678;12.464;2024-01-11T00:20:01;1.50;99.90
48454;DHT22;34261;55.678;12.464;2024-01-11T00:22:27;1.50;99.90
48454;DHT22;34261;55.678;12.464;2024-01-11T00:24:53;1.50;99.90
48454;DHT22;34261;55.678;12.464;2024-01-11T00:27:24;1.50;99.90
48454;DHT22;34261;55.678;12.464;2024-01-11T00:29:50;1.60;99.90
48454;DHT22;34261;55.678;12.464;2024-01-11T00:32:15;1.50;99.90
48454;DHT22;34261;55.678;12.464;2024-01-11T00:34:41;1.50;99.90
48454;DHT22;34261;55.678;12.464;2024-01-11T00:37:07;1.50;99.90
48454;DHT22;34261;55.678;12.464;2024-01-11T00:39:32;1.50;99.90
48454;DHT22;34261;55.678;12.464;2024-01-11T00:41:59;1.50;99.90
48454;DHT22;34261;55.678;12.464;2024-01-11T00:44:24;1.60;99.90
48454;DHT22;34261;55.678;12.464;2024-01-11T00:46:50;1.50;99.90
48454;DHT22;34261;55.678;12.464;2024-01-11T00:49:15;1.50;99.90
48454;DHT22;34261;55.678;12.464;2024-01-11T00:51:41;1.50;99.90
48454;DHT22;34261;55.678;12.464;2024-01-11T00:54:07;1.60;99.90
48454;DHT22;34261;55.678;12.464;2024-01-11T00:56:32;1.60;99.90
48454;DHT22;34261;55.678;12.464;2024-01-11T00:58:58;1.60;99.90
48454;DHT22;34261;55.678;12.464;2024-01-11T01:01:24;1.60;99.90
48454;DHT22;34261;55.678;12.464;2024-01-11T01:03:49;1.60;99.90
48454;DHT22;34261;55.678;12.464;2024-01-11T01:06:15;1.70;99.90
48454;DHT22;34261;55.678;12.464;2024-01-11T01:08:44;1.70;99.90
48454;DHT22;34261;55.678;12.464;2024-01-11T01:11:13;1.80;99.90
48454;DHT22;34261;55.678;12.464;2024-01-11T01:13:38;1.80;99.90
48454;DHT22;34261;55.678;12.464;2024-01-11T01:16:04;1.80;99.90
48454;DHT22;34261;55.678;12.464;2024-01-11T01:18:30;1.80;99.90
48454;DHT22;34261;55.678;12.464;2024-01-11T01:20:56;1.90;99.90
48454;DHT22;34261;55.678;12.464;2024-01-11T01:23:22;1.90;99.90
48454;DHT22;34261;55.678;12.464;2024-01-11T01:25:48;2.00;99.90
48454;DHT22;34261;55.678;12.464;2024-01-11T01:28:13;2.00;99.90
48454;DHT22;34261;55.678;12.464;2024-01-11T01:30:39;2.10;99.90
48454;DHT22;34261;55.678;12.464;2024-01-11T01:33:05;2.10;99.90
48454;DHT22;34261;55.678;12.464;2024-01-11T01:35:36;2.10;99.90
48454;DHT22;34261;55.678;12.464;2024-01-11T01:38:02;2.10;99.90
48454;DHT22;34261;55.678;12.464;2024-01-11T01:40:30;2.10;99.90
48454;DHT22;34261;55.678;12.464;2024-01-11T01:43:00;2.10;99.90
48454;DHT22;34261;55.678;12.464;2024-01-11T01:45:26;2.20;99.90
48454;DHT22;34261;55.678;12.464;2024-01-11T01:47:52;2.20;99.90
48454;DHT22;34261;55.678;12.464;2024-01-11T01:50:19;2.20;99.90
48454;DHT22;34261;55.678;12.464;2024-01-11T01:52:46;2.30;99.90
48454;DHT22;34261;55.678;12.464;2024-01-11T01:55:12;2.30;99.90
48454;DHT22;34261;55.678;12.464;2024-01-11T01:57:40;2.30;99.90
48454;DHT22;34261;55.678;12.464;2024-01-11T02:00:09;2.30;99.90
48454;DHT22;34261;55.678;12.464;2024-01-11T02:02:36;2.30;99.90
48454;DHT22;34261;55.678;12.464;2024-01-11T02:05:03;2.20;99.90
48454;DHT22;34261;55.678;12.464;2024-01-11T02:07:29;2.40;99.90
48454;DHT22;34261;55.678;12.464;2024-01-11T02:09:55;2.40;99.90
48454;DHT22;34261;55.678;12.464;2024-01-11T02:12:22;2.40;99.90
48454;DHT22;34261;55.678;12.464;2024-01-11T02:14:48;2.30;99.90
48454;DHT22;34261;55.678;12.464;2024-01-11T02:17:14;2.40;99.90
48454;DHT22;34261;55.678;12.464;2024-01-11T02:19:40;2.30;99.90
48454;DHT22;34261;55.678;12.464;2024-01-11T02:22:24;2.40;99.90
48454;DHT22;34261;55.678;12.464;2024-01-11T02:24:54;2.40;99.90
48454;DHT22;34261;55.678;12.464;2024-01-11T02:27:19;2.40;99.90
48454;DHT22;34261;55.678;12.464;2024-01-11T02:29:45;2.40;99.90
48454;DHT22;34261;55.678;12.464;2024-01-11T02:32:11;2.50;99.90
48454;DHT22;34261;55.678;12.464;2024-01-11T02:34:37;2.50;99.90
48454;DHT22;34261;55.678;12.464;2024-01-11T02:37:04;2.50;99.90
48454;DHT22;34261;55.678;12.464;2024-01-11T02:39:30;2.50;99.90
48454;DHT22;34261;55.678;12.464;2024-01-11T02:41:56;2.50;99.90
48454;DHT22;34261;55.678;12.464;2024-01-11T02:44:23;2.60;99.90
48454;DHT22;34261;55.678;12.464;2024-01-11T02:46:49;2.60;99.90
48454;DHT22;34261;55.678;12.464;2024-01-11T02:49:15;2.60;99.90
48454;DHT22;34261;55.678;12.464;2024-01-11T02:51:41;2.70;99.90
48454;DHT22;34261;55.678;12.464;2024-01-11T02:54:06;2.60;99.90
48454;DHT22;34261;55.678;12.464;2024-01-11T02:56:32;2.70;99.90
48454;DHT22;34261;55.678;12.464;2024-01-11T02:58:58;2.70;99.90
48454;DHT22;34261;55.678;12.464;2024-01-11T03:01:23;2.60;99.90
48454;DHT22;34261;55.678;12.464;2024-01-11T03:03:49;2.60;99.90
48454;DHT22;34261;55.678;12.464;2024-01-11T03:06:15;2.70;99.90
48454;DHT22;34261;55.678;12.464;2024-01-11T03:08:43;2.70;99.90
48454;DHT22;34261;55.678;12.464;2024-01-11T03:11:08;2.60;99.90
48454;DHT22;34261;55.678;12.464;2024-01-11T03:13:34;2.60;99.90
48454;DHT22;34261;55.678;12.464;2024-01-11T03:16:00;2.60;99.90
48454;DHT22;34261;55.678;12.464;2024-01-11T03:18:25;2.60;99.90
48454;DHT22;34261;55.678;12.464;2024-01-11T03:20:51;2.60;99.90
48454;DHT22;34261;55.678;12.464;2024-01-11T03:23:16;2.60;99.90
48454;DHT22;34261;55.678;12.464;2024-01-11T03:25:42;2.70;99.90
48454;DHT22;34261;55.678;12.464;2024-01-11T03:28:08;2.70;99.90
48454;DHT22;34261;55.678;12.464;2024-01-11T03:30:33;2.70;99.90
48454;DHT22;34261;55.678;12.464;2024-01-11T03:32:59;2.70;99.90
48454;DHT22;34261;55.678;12.464;2024-01-11T03:35:25;2.70;99.90
48454;DHT22;34261;55.678;12.464;2024-01-11T03:37:50;2.70;99.90
48454;DHT22;34261;55.678;12.464;2024-01-11T03:40:17;2.80;99.90
48454;DHT22;34261;55.678;12.464;2024-01-11T03:42:42;2.70;99.90
48454;DHT22;34261;55.678;12.464;2024-01-11T03:45:09;2.70;99.90
48454;DHT22;34261;55.678;12.464;2024-01-11T03:47:35;2.70;99.90
48454;DHT22;34261;55.678;12.464;2024-01-11T03:50:01;2.60;99.90
48454;DHT22;34261;55.678;12.464;2024-01-11T03:52:27;2.60;99.90
48454;DHT22;34261;55.678;12.464;2024-01-11T03:54:56;2.50;99.90
48454;DHT22;34261;55.678;12.464;2024-01-11T03:57:21;2.50;99.90
48454;DHT22;34261;55.678;12.464;2024-01-11T03:59:47;2.50;99.90
48454;DHT22;34261;55.678;12.464;2024-01-11T04:02:13;2.50;99.90
48454;DHT22;34261;55.678;12.464;2024-01-11T04:04:40;2.50;99.90
48454;DHT22;34261;55.678;12.464;2024-01-11T04:07:06;2.60;99.90
48454;DHT22;34261;55.678;12.464;2024-01-11T04:09:32;2.60;99.90
48454;DHT22;34261;55.678;12.464;2024-01-11T04:11:57;2.70;99.90
48454;DHT22;34261;55.678;12.464;2024-01-11T04:14:23;2.70;99.90
48454;DHT22;34261;55.678;12.464;2024-01-11T04:16:49;2.70;99.90
48454;DHT22;34261;55.678;12.464;2024-01-11T04:19:14;2.70;99.90
48454;DHT22;34261;55.678;12.464;2024-01-11T04:21:40;2.70;99.90
48454;DHT22;34261;55.678;12.464;2024-01-11T04:24:06;2.60;99.90
48454;DHT22;34261;55.678;12.464;2024-01-11T04:26:34;2.70;99.90
48454;DHT22;34261;55.678;12.464;2024-01-11T04:29:00;2.70;99.90
48454;DHT22;34261;55.678;12.464;2024-01-11T04:31:58;2.70;99.90
48454;DHT22;34261;55.678;12.464;2024-01-11T04:34:24;2.70;99.90
48454;DHT22;34261;55.678;12.464;2024-01-11T04:36:49;2.70;99.90
48454;DHT22;34261;55.678;12.464;2024-01-11T04:39:15;2.70;99.90
48454;DHT22;34261;55.678;12.464;2024-01-11T04:41:41;2.70;99.90
48454;DHT22;34261;55.678;12.464;2024-01-11T04:44:07;2.80;99.90
48454;DHT22;34261;55.678;12.464;2024-01-11T04:46:32;2.80;99.90
48454;DHT22;34261;55.678;12.464;2024-01-11T04:48:58;2.80;99.90
48454;DHT22;34261;55.678;12.464;2024-01-11T04:51:24;2.80;99.90
48454;DHT22;34261;55.678;12.464;2024-01-11T04:53:49;2.80;99.90
48454;DHT22;34261;55.678;12.464;2024-01-11T04:56:16;2.80;99.90
48454;DHT22;34261;55.678;12.464;2024-01-11T04:58:43;2.80;99.90
48454;DHT22;34261;55.678;12.464;2024-01-11T05:01:14;2.70;99.90
48454;DHT22;34261;55.678;12.464;2024-01-11T05:03:40;2.80;99.90
48454;DHT22;34261;55.678;12.464;2024-01-11T05:06:06;2.80;99.90
48454;DHT22;34261;55.678;12.464;2024-01-11T05:08:31;2.80;99.90
48454;DHT22;34261;55.678;12.464;2024-01-11T05:10:57;2.80;99.90
48454;DHT22;34261;55.678;12.464;2024-01-11T05:13:23;2.90;99.90
48454;DHT22;34261;55.678;12.464;2024-01-11T05:15:49;3.00;99.90
48454;DHT22;34261;55.678;12.464;2024-01-11T05:18:15;2.90;99.90
48454;DHT22;34261;55.678;12.464;2024-01-11T05:20:40;2.90;99.90
48454;DHT22;34261;55.678;12.464;2024-01-11T05:23:06;2.90;99.90
48454;DHT22;34261;55.678;12.464;2024-01-11T05:25:32;2.90;99.90
48454;DHT22;34261;55.678;12.464;2024-01-11T05:28:01;2.90;99.90
48454;DHT22;34261;55.678;12.464;2024-01-11T05:30:27;2.90;99.90
48454;DHT22;34261;55.678;12.464;2024-01-11T05:32:53;2.90;99.90
48454;DHT22;34261;55.678;12.464;2024-01-11T05:35:19;3.00;99.90
48454;DHT22;34261;55.678;12.464;2024-01-11T05:37:45;3.00;99.90
48454;DHT22;34261;55.678;12.464;2024-01-11T05:40:11;3.00;99.90
48454;DHT22;34261;55.678;12.464;2024-01-11T05:42:36;3.00;99.90
48454;DHT22;34261;55.678;12.464;2024-01-11T05:45:04;3.10;99.90
48454;DHT22;34261;55.678;12.464;2024-01-11T05:47:30;3.10;99.90
48454;DHT22;34261;55.678;12.464;2024-01-11T05:49:56;3.10;99.90
48454;DHT22;34261;55.678;12.464;2024-01-11T05:52:22;3.10;99.90
48454;DHT22;34261;55.678;12.464;2024-01-11T05:54:47;3.10;99.90
48454;DHT22;34261;55.678;12.464;2024-01-11T05:57:13;3.00;99.90
48454;DHT22;34261;55.678;12.464;2024-01-11T05:59:46;3.10;99.90
48454;DHT22;34261;55.678;12.464;2024-01-11T06:02:12;3.00;99.90
48454;DHT22;34261;55.678;12.464;2024-01-11T06:04:39;3.00;99.90
48454;DHT22;34261;55.678;12.464;2024-01-11T06:07:05;3.00;99.90
48454;DHT22;34261;55.678;12.464;2024-01-11T06:09:30;3.00;99.90
48454;DHT22;34261;55.678;12.464;2024-01-11T06:11:56;2.90;99.90
48454;DHT22;34261;55.678;12.464;2024-01-11T06:14:21;3.00;99.90
48454;DHT22;34261;55.678;12.464;2024-01-11T06:16:47;2.90;99.90
48454;DHT22;34261;55.678;12.464;2024-01-11T06:19:13;2.90;99.90
48454;DHT22;34261;55.678;12.464;2024-01-11T06:21:38;2.90;99.90
48454;DHT22;34261;55.678;12.464;2024-01-11T06:24:04;3.00;99.90
48454;DHT22;34261;55.678;12.464;2024-01-11T06:26:30;3.00;99.90
48454;DHT22;34261;55.678;12.464;2024-01-11T06:28:55;3.00;99.90
48454;DHT22;34261;55.678;12.464;2024-01-11T06:31:21;3.00;99.90
48454;DHT22;34261;55.678;12.464;2024-01-11T06:33:47;3.00;99.90
48454;DHT22;34261;55.678;12.464;2024-01-11T06:36:12;2.90;99.90
48454;DHT22;34261;55.678;12.464;2024-01-11T06:38:38;2.90;99.90
48454;DHT22;34261;55.678;12.464;2024-01-11T06:41:04;2.90;99.90
48454;DHT22;34261;55.678;12.464;2024-01-11T06:43:29;2.90;99.90
48454;DHT22;34261;55.678;12.464;2024-01-11T06:45:55;2.80;99.90
48454;DHT22;34261;55.678;12.464;2024-01-11T06:48:21;2.80;99.90
48454;DHT22;34261;55.678;12.464;2024-01-11T06:50:47;2.80;99.90
48454;DHT22;34261;55.678;12.464;2024-01-11T06:53:12;2.80;99.90
48454;DHT22;34261;55.678;12.464;2024-01-11T06:55:38;2.80;99.90
48454;DHT22;34261;55.678;12.464;2024-01-11T06:58:03;2.80;99.90
48454;DHT22;34261;55.678;12.464;2024-01-11T07:00:29;2.80;99.90
48454;DHT22;34261;55.678;12.464;2024-01-11T07:02:55;2.80;99.90
48454;DHT22;34261;55.678;12.464;2024-01-11T07:05:20;2.80;99.90
48454;DHT22;34261;55.678;12.464;2024-01-11T07:07:46;2.70;99.90
48454;DHT22;34261;55.678;12.464;2024-01-11T07:10:12;2.70;99.90
48454;DHT22;34261;55.678;12.464;2024-01-11T07:12:38;2.80;99.90
48454;DHT22;34261;55.678;12.464;2024-01-11T07:15:06;2.70;99.90
48454;DHT22;34261;55.678;12.464;2024-01-11T07:17:33;2.60;99.90
48454;DHT22;34261;55.678;12.464;2024-01-11T07:19:59;2.50;99.90
48454;DHT22;34261;55.678;12.464;2024-01-11T07:22:24;2.40;99.90
48454;DHT22;34261;55.678;12.464;2024-01-11T07:24:50;2.40;99.90
48454;DHT22;34261;55.678;12.464;2024-01-11T07:27:16;2.30;99.90
48454;DHT22;34261;55.678;12.464;2024-01-11T07:29:41;2.40;99.90
48454;DHT22;34261;55.678;12.464;2024-01-11T07:32:07;2.40;99.90
48454;DHT22;34261;55.678;12.464;2024-01-11T07:34:32;2.50;99.90
48454;DHT22;34261;55.678;12.464;2024-01-11T07:36:58;2.40;99.90
48454;DHT22;34261;55.678;12.464;2024-01-11T07:39:24;2.30;99.90
48454;DHT22;34261;55.678;12.464;2024-01-11T07:41:50;2.30;99.90
48454;DHT22;34261;55.678;12.464;2024-01-11T07:44:16;2.30;99.90
48454;DHT22;34261;55.678;12.464;2024-01-11T07:46:42;2.20;99.90
48454;DHT22;34261;55.678;12.464;2024-01-11T07:49:08;2.20;99.90
48454;DHT22;34261;55.678;12.464;2024-01-11T07:51:34;2.10;99.90
48454;DHT22;34261;55.678;12.464;2024-01-11T07:54:02;2.20;99.90
48454;DHT22;34261;55.678;12.464;2024-01-11T07:56:29;2.20;99.90
48454;DHT22;34261;55.678;12.464;2024-01-11T07:58:54;2.30;99.90
48454;DHT22;34261;55.678;12.464;2024-01-11T08:01:20;2.30;99.90
48454;DHT22;34261;55.678;12.464;2024-01-11T08:03:47;2.30;99.90
48454;DHT22;34261;55.678;12.464;2024-01-11T08:06:13;2.30;99.90
48454;DHT22;34261;55.678;12.464;2024-01-11T08:08:39;2.20;99.90
48454;DHT22;34261;55.678;12.464;2024-01-11T08:11:08;2.30;99.90
48454;DHT22;34261;55.678;12.464;2024-01-11T08:13:34;2.20;99.90
48454;DHT22;34261;55.678;12.464;2024-01-11T08:16:03;2.10;99.90
48454;DHT22;34261;55.678;12.464;2024-01-11T08:18:32;2.10;99.90
48454;DHT22;34261;55.678;12.464;2024-01-11T08:20:58;2.10;99.90
48454;DHT22;34261;55.678;12.464;2024-01-11T08:23:24;2.20;99.90
48454;DHT22;34261;55.678;12.464;2024-01-11T08:25:49;2.10;99.90
48454;DHT22;34261;55.678;12.464;2024-01-11T08:28:15;2.10;99.90
48454;DHT22;34261;55.678;12.464;2024-01-11T08:30:41;2.10;99.90
48454;DHT22;34261;55.678;12.464;2024-01-11T08:33:08;2.20;99.90
48454;DHT22;34261;55.678;12.464;2024-01-11T08:35:33;2.10;99.90
48454;DHT22;34261;55.678;12.464;2024-01-11T08:37:59;2.10;99.90
48454;DHT22;34261;55.678;12.464;2024-01-11T08:40:24;2.10;99.90
48454;DHT22;34261;55.678;12.464;2024-01-11T08:42:51;2.20;99.90
48454;DHT22;34261;55.678;12.464;2024-01-11T08:45:16;2.30;99.90
48454;DHT22;34261;55.678;12.464;2024-01-11T08:47:46;2.20;99.90
48454;DHT22;34261;55.678;12.464;2024-01-11T08:50:13;2.20;99.90
48454;DHT22;34261;55.678;12.464;2024-01-11T08:52:39;2.10;99.90
48454;DHT22;34261;55.678;12.464;2024-01-11T08:55:05;2.20;99.90
48454;DHT22;34261;55.678;12.464;2024-01-11T08:57:31;2.20;99.90
48454;DHT22;34261;55.678;12.464;2024-01-11T08:59:57;2.20;99.90
48454;DHT22;34261;55.678;12.464;2024-01-11T09:02:22;2.10;99.90
48454;DHT22;34261;55.678;12.464;2024-01-11T09:04:49;2.20;99.90
48454;DHT22;34261;55.678;12.464;2024-01-11T09:07:14;2.20;99.90
48454;DHT22;34261;55.678;12.464;2024-01-11T09:09:41;2.30;99.90
48454;DHT22;34261;55.678;12.464;2024-01-11T09:12:07;2.40;99.90
48454;DHT22;34261;55.678;12.464;2024-01-11T09:14:32;2.40;99.90
48454;DHT22;34261;55.678;12.464;2024-01-11T09:16:58;2.40;99.90
48454;DHT22;34261;55.678;12.464;2024-01-11T09:19:24;2.40;99.90
48454;DHT22;34261;55.678;12.464;2024-01-11T09:21:49;2.30;99.90
48454;DHT22;34261;55.678;12.464;2024-01-11T09:24:15;2.40;99.90
48454;DHT22;34261;55.678;12.464;2024-01-11T09:26:41;2.40;99.90
48454;DHT22;34261;55.678;12.464;2024-01-11T09:29:06;2.40;99.90
48454;DHT22;34261;55.678;12.464;2024-01-11T09:31:32;2.40;99.90
48454;DHT22;34261;55.678;12.464;2024-01-11T09:33:57;2.40;99.90
48454;DHT22;34261;55.678;12.464;2024-01-11T09:36:23;2.50;99.90
48454;DHT22;34261;55.678;12.464;2024-01-11T09:38:49;2.50;99.90
48454;DHT22;34261;55.678;12.464;2024-01-11T09:41:14;2.60;99.90
48454;DHT22;34261;55.678;12.464;2024-01-11T09:43:43;2.60;99.90
48454;DHT22;34261;55.678;12.464;2024-01-11T09:46:11;2.60;99.90
48454;DHT22;34261;55.678;12.464;2024-01-11T09:48:39;2.70;99.90
48454;DHT22;34261;55.678;12.464;2024-01-11T09:51:09;2.70;99.90
48454;DHT22;34261;55.678;12.464;2024-01-11T09:53:38;2.60;99.90
48454;DHT22;34261;55.678;12.464;2024-01-11T09:56:08;2.70;99.90
48454;DHT22;34261;55.678;12.464;2024-01-11T09:58:37;2.60;99.90
48454;DHT22;34261;55.678;12.464;2024-01-11T10:01:09;2.70;99.90
48454;DHT22;34261;55.678;12.464;2024-01-11T10:03:36;2.70;99.90
48454;DHT22;34261;55.678;12.464;2024-01-11T10:06:02;2.80;99.90
48454;DHT22;34261;55.678;12.464;2024-01-11T10:08:29;2.80;99.90
48454;DHT22;34261;55.678;12.464;2024-01-11T10:10:55;2.80;99.90
48454;DHT22;34261;55.678;12.464;2024-01-11T10:13:27;2.80;99.90
48454;DHT22;34261;55.678;12.464;2024-01-11T10:16:08;3.00;99.90
48454;DHT22;34261;55.678;12.464;2024-01-11T10:18:35;3.10;99.90
48454;DHT22;34261;55.678;12.464;2024-01-11T10:21:01;3.00;99.90
48454;DHT22;34261;55.678;12.464;2024-01-11T10:23:28;3.10;99.90
48454;DHT22;34261;55.678;12.464;2024-01-11T10:25:56;3.20;99.90
48454;DHT22;34261;55.678;12.464;2024-01-11T10:28:24;3.40;99.90
48454;DHT22;34261;55.678;12.464;2024-01-11T10:30:51;3.40;99.90
48454;DHT22;34261;55.678;12.464;2024-01-11T10:33:20;3.30;99.90
48454;DHT22;34261;55.678;12.464;2024-01-11T10:35:47;3.20;99.90
48454;DHT22;34261;55.678;12.464;2024-01-11T10:38:14;3.20;99.90
48454;DHT22;34261;55.678;12.464;2024-01-11T10:40:41;3.30;99.90
48454;DHT22;34261;55.678;12.464;2024-01-11T10:43:09;3.40;99.90
48454;DHT22;34261;55.678;12.464;2024-01-11T10:45:39;3.50;99.90
48454;DHT22;34261;55.678;12.464;2024-01-11T10:48:13;3.60;99.90
48454;DHT22;34261;55.678;12.464;2024-01-11T10:50:43;3.70;99.90
48454;DHT22;34261;55.678;12.464;2024-01-11T10:55:45;3.90;99.90
48454;DHT22;34261;55.678;12.464;2024-01-11T10:58:11;4.00;99.90
48454;DHT22;34261;55.678;12.464;2024-01-11T11:00:37;3.90;99.90
48454;DHT22;34261;55.678;12.464;2024-01-11T11:03:05;3.90;99.90
48454;DHT22;34261;55.678;12.464;2024-01-11T11:05:35;4.00;99.90
48454;DHT22;34261;55.678;12.464;2024-01-11T11:08:04;4.00;99.90
48454;DHT22;34261;55.678;12.464;2024-01-11T11:10:34;4.00;99.90
48454;DHT22;34261;55.678;12.464;2024-01-11T11:13:00;4.10;99.90
48454;DHT22;34261;55.678;12.464;2024-01-11T11:15:29;4.10;99.90
48454;DHT22;34261;55.678;12.464;2024-01-11T11:17:55;4.10;99.90
48454;DHT22;34261;55.678;12.464;2024-01-11T11:20:21;4.20;99.90
48454;DHT22;34261;55.678;12.464;2024-01-11T11:23:06;4.20;99.90
48454;DHT22;34261;55.678;12.464;2024-01-11T11:25:32;4.20;99.90
48454;DHT22;34261;55.678;12.464;2024-01-11T11:28:03;4.20;99.90
48454;DHT22;34261;55.678;12.464;2024-01-11T11:30:36;4.20;99.90
48454;DHT22;34261;55.678;12.464;2024-01-11T11:33:10;4.20;99.90
48454;DHT22;34261;55.678;12.464;2024-01-11T11:35:37;4.30;99.90
48454;DHT22;34261;55.678;12.464;2024-01-11T11:38:03;4.30;99.90
48454;DHT22;34261;55.678;12.464;2024-01-11T11:40:36;4.30;99.90
48454;DHT22;34261;55.678;12.464;2024-01-11T11:43:05;4.40;99.90
48454;DHT22;34261;55.678;12.464;2024-01-11T11:45:31;4.40;99.90
48454;DHT22;34261;55.678;12.464;2024-01-11T11:47:57;4.40;99.90
48454;DHT22;34261;55.678;12.464;2024-01-11T11:50:23;4.40;99.90
48454;DHT22;34261;55.678;12.464;2024-01-11T11:52:54;4.50;99.90
48454;DHT22;34261;55.678;12.464;2024-01-11T11:55:22;4.50;99.90
48454;DHT22;34261;55.678;12.464;2024-01-11T11:57:47;4.50;99.90
48454;DHT22;34261;55.678;12.464;2024-01-11T12:00:14;4.60;99.90
48454;DHT22;34261;55.678;12.464;2024-01-11T12:02:41;4.60;99.90
48454;DHT22;34261;55.678;12.464;2024-01-11T12:05:07;4.60;99.90
48454;DHT22;34261;55.678;12.464;2024-01-11T12:07:33;4.60;99.90
48454;DHT22;34261;55.678;12.464;2024-01-11T12:09:59;4.70;99.90
48454;DHT22;34261;55.678;12.464;2024-01-11T12:12:25;4.80;99.90
48454;DHT22;34261;55.678;12.464;2024-01-11T12:14:53;5.00;99.90
48454;DHT22;34261;55.678;12.464;2024-01-11T12:17:24;5.10;99.90
48454;DHT22;34261;55.678;12.464;2024-01-11T12:19:51;5.20;99.90
48454;DHT22;34261;55.678;12.464;2024-01-11T12:22:17;5.30;99.90
48454;DHT22;34261;55.678;12.464;2024-01-11T12:24:43;5.30;99.90
48454;DHT22;34261;55.678;12.464;2024-01-11T12:27:10;5.50;99.90
48454;DHT22;34261;55.678;12.464;2024-01-11T12:29:36;5.60;99.90
48454;DHT22;34261;55.678;12.464;2024-01-11T12:32:04;5.60;99.90
48454;DHT22;34261;55.678;12.464;2024-01-11T12:34:29;5.60;99.90
48454;DHT22;34261;55.678;12.464;2024-01-11T12:36:55;5.70;99.90
48454;DHT22;34261;55.678;12.464;2024-01-11T12:39:26;5.60;99.90
48454;DHT22;34261;55.678;12.464;2024-01-11T12:41:54;5.70;99.90
48454;DHT22;34261;55.678;12.464;2024-01-11T12:44:20;5.80;99.90
48454;DHT22;34261;55.678;12.464;2024-01-11T12:46:49;5.80;99.90
48454;DHT22;34261;55.678;12.464;2024-01-11T12:49:15;5.80;99.90
48454;DHT22;34261;55.678;12.464;2024-01-11T12:51:41;5.70;99.90
48454;DHT22;34261;55.678;12.464;2024-01-11T12:54:13;5.60;99.90
48454;DHT22;34261;55.678;12.464;2024-01-11T12:56:43;5.50;99.90
48454;DHT22;34261;55.678;12.464;2024-01-11T12:59:09;5.60;99.90
48454;DHT22;34261;55.678;12.464;2024-01-11T13:01:36;5.50;99.90
48454;DHT22;34261;55.678;12.464;2024-01-11T13:04:14;5.40;99.90
48454;DHT22;34261;55.678;12.464;2024-01-11T13:06:40;5.50;99.90
48454;DHT22;34261;55.678;12.464;2024-01-11T13:09:08;5.50;99.90
48454;DHT22;34261;55.678;12.464;2024-01-11T13:11:35;5.50;99.90
48454;DHT22;34261;55.678;12.464;2024-01-11T13:14:01;5.50;99.90
48454;DHT22;34261;55.678;12.464;2024-01-11T13:16:31;5.40;99.90
48454;DHT22;34261;55.678;12.464;2024-01-11T13:18:58;5.40;99.90
48454;DHT22;34261;55.678;12.464;2024-01-11T13:21:23;5.30;99.90
48454;DHT22;34261;55.678;12.464;2024-01-11T13:23:49;5.30;99.90
48454;DHT22;34261;55.678;12.464;2024-01-11T13:26:15;5.40;99.90
48454;DHT22;34261;55.678;12.464;2024-01-11T13:28:40;5.20;99.90
48454;DHT22;34261;55.678;12.464;2024-01-11T13:31:06;5.20;99.90
48454;DHT22;34261;55.678;12.464;2024-01-11T13:33:34;5.10;99.90
48454;DHT22;34261;55.678;12.464;2024-01-11T13:35:59;5.00;99.90
48454;DHT22;34261;55.678;12.464;2024-01-11T13:38:25;4.90;99.90
48454;DHT22;34261;55.678;12.464;2024-01-11T13:40:51;4.90;99.90
48454;DHT22;34261;55.678;12.464;2024-01-11T13:43:17;4.90;99.90
48454;DHT22;34261;55.678;12.464;2024-01-11T13:45:43;4.90;99.90
48454;DHT22;34261;55.678;12.464;2024-01-11T13:48:10;4.90;99.90
48454;DHT22;34261;55.678;12.464;2024-01-11T13:50:36;4.70;99.90
48454;DHT22;34261;55.678;12.464;2024-01-11T13:53:01;4.70;99.90
48454;DHT22;34261;55.678;12.464;2024-01-11T13:55:27;4.80;99.90
48454;DHT22;34261;55.678;12.464;2024-01-11T13:57:54;4.80;99.90
48454;DHT22;34261;55.678;12.464;2024-01-11T14:00:20;4.90;99.90
48454;DHT22;34261;55.678;12.464;2024-01-11T14:02:47;4.90;99.90
48454;DHT22;34261;55.678;12.464;2024-01-11T14:05:13;4.90;99.90
48454;DHT22;34261;55.678;12.464;2024-01-11T14:07:41;5.00;99.90
48454;DHT22;34261;55.678;12.464;2024-01-11T14:10:07;4.90;99.90
48454;DHT22;34261;55.678;12.464;2024-01-11T14:12:37;4.80;99.90
48454;DHT22;34261;55.678;12.464;2024-01-11T14:15:04;4.80;99.90
48454;DHT22;34261;55.678;12.464;2024-01-11T14:17:31;4.80;99.90
48454;DHT22;34261;55.678;12.464;2024-01-11T14:19:57;4.70;99.90
48454;DHT22;34261;55.678;12.464;2024-01-11T14:22:29;4.70;99.90
48454;DHT22;34261;55.678;12.464;2024-01-11T14:24:55;4.60;99.90
48454;DHT22;34261;55.678;12.464;2024-01-11T14:27:21;4.60;99.90
48454;DHT22;34261;55.678;12.464;2024-01-11T14:29:48;4.60;99.90
48454;DHT22;34261;55.678;12.464;2024-01-11T14:32:14;4.50;99.90
48454;DHT22;34261;55.678;12.464;2024-01-11T14:34:42;4.50;99.90
48454;DHT22;34261;55.678;12.464;2024-01-11T14:37:10;4.40;99.90
48454;DHT22;34261;55.678;12.464;2024-01-11T14:39:36;4.40;99.90
48454;DHT22;34261;55.678;12.464;2024-01-11T14:42:02;4.40;99.90
48454;DHT22;34261;55.678;12.464;2024-01-11T14:44:28;4.40;99.90
48454;DHT22;34261;55.678;12.464;2024-01-11T14:46:57;4.30;99.90
48454;DHT22;34261;55.678;12.464;2024-01-11T14:49:24;4.30;99.90
48454;DHT22;34261;55.678;12.464;2024-01-11T14:51:52;4.30;99.90
48454;DHT22;34261;55.678;12.464;2024-01-11T14:54:29;4.30;99.90
48454;DHT22;34261;55.678;12.464;2024-01-11T14:56:59;4.20;99.90
48454;DHT22;34261;55.678;12.464;2024-01-11T14:59:26;4.20;99.90
48454;DHT22;34261;55.678;12.464;2024-01-11T15:01:51;4.20;99.90
48454;DHT22;34261;55.678;12.464;2024-01-11T15:04:17;4.20;99.90
48454;DHT22;34261;55.678;12.464;2024-01-11T15:06:43;4.10;99.90
48454;DHT22;34261;55.678;12.464;2024-01-11T15:09:10;4.10;99.90
48454;DHT22;34261;55.678;12.464;2024-01-11T15:12:09;4.00;99.90
48454;DHT22;34261;55.678;12.464;2024-01-11T15:14:35;4.00;99.90
48454;DHT22;34261;55.678;12.464;2024-01-11T15:17:00;4.00;99.90
48454;DHT22;34261;55.678;12.464;2024-01-11T15:19:28;4.00;99.90
48454;DHT22;34261;55.678;12.464;2024-01-11T15:21:54;3.90;99.90
48454;DHT22;34261;55.678;12.464;2024-01-11T15:24:27;3.90;99.90
48454;DHT22;34261;55.678;12.464;2024-01-11T15:26:54;4.00;99.90
48454;DHT22;34261;55.678;12.464;2024-01-11T15:29:19;3.90;99.90